Latest Weather Observations for Pallamana

IDS60801

Issued at 9:02 am CDT Tuesday 24 January 2017 (issued every 30 minutes, with the page automatically refreshed every 10 minutes)

About weather observations | Map of weather stations | Latest weather observations for SA | Other Formats
Station Details ID: 024584 Name: PALLAMANA AERODROME Lat: -35.06 Lon: 139.23 Height: 45.0 m
Data from the previous 72 hours. | See also: Recent months at Pallamana
Date/Time
CDT
Temp
°C
App
Temp
°C
Dew
Point
°C
Rel
Hum
%
Delta-T
°C
Wind Press
QNH
hPa
Press
MSL
hPa
Rain since
9am
mm
Dir  Spd
km/h
Gust
km/h
Spd
kts
Gust
kts
24/09:00am 19.7 16.2 12.2 62 4.2 SSW 22 32 12 17 1017.0 1016.8 2.8
24/08:30am 18.6 15.5 12.3 67 3.5 SSW 20 30 11 16 1016.5 1016.3 2.8
24/08:00am 18.7 15.8 12.8 68 3.3 SSW 20 28 11 15 1016.0 1015.8 2.8
24/07:30am 17.2 14.5 12.9 76 2.4 SW 19 24 10 13 1015.4 1015.2 2.8
24/07:00am 15.7 12.9 12.6 82 1.7 SW 19 20 10 11 1015.0 1014.8 2.8
24/06:30am 15.9 12.5 12.6 81 1.8 SW 22 28 12 15 1014.3 1014.1 2.8
24/06:00am 16.5 12.0 12.7 78 2.1 SW 28 35 15 19 1013.7 1013.5 2.8
24/05:30am 17.4 13.1 14.3 82 1.8 SW 30 37 16 20 1013.2 1013.0 2.8
24/05:23am 17.8 14.1 14.9 83 1.7 SW 28 41 15 22 1013.0 1012.8 2.8
24/05:00am 17.8 16.3 15.4 86 1.4 SW 17 20 9 11 1012.7 1012.5 2.8
24/04:30am 18.3 16.8 15.4 83 1.7 SW 17 22 9 12 1012.4 1012.2 2.8
24/04:00am 18.0 15.9 15.1 83 1.7 SW 20 30 11 16 1011.9 1011.7 2.8
24/03:30am 18.1 16.4 15.7 86 1.4 SW 19 24 10 13 1011.7 1011.5 2.8
24/03:00am 18.5 16.8 15.8 84 1.6 SW 19 24 10 13 1011.6 1011.4 2.8
24/02:30am 18.3 15.6 15.6 84 1.6 SW 24 32 13 17 1010.9 1010.8 2.8
24/02:00am 19.2 15.4 15.8 81 2.0 SW 30 39 16 21 1010.7 1010.6 2.8
24/01:30am 19.1 18.0 17.8 92 0.8 SSW 20 30 11 16 1010.5 1010.4 2.8
24/01:29am 19.1 17.6 17.8 92 0.8 SSW 22 30 12 16 1010.5 1010.4 2.8
24/01:00am 19.6 17.1 18.1 91 0.9 SW 28 41 15 22 1010.2 1010.1 2.8
24/12:30am 20.2 18.8 18.9 92 0.8 SSW 24 35 13 19 1010.0 1009.9 2.8
24/12:15am 20.6 19.4 19.3 92 0.8 SSW 24 32 13 17 1009.5 1009.4 2.8
24/12:00am 22.7 23.6 20.9 89 1.2 SW 17 24 9 13 1009.0 1008.9 2.8
 
Date/Time
CDT
Temp
°C
App
Temp
°C
Dew
Point
°C
Rel
Hum
%
Delta-T
°C
Wind Press
QNH
hPa
Press
MSL
hPa
Rain since
9am
mm
Dir  Spd
km/h
Gust
km/h
Spd
kts
Gust
kts
23/11:51pm 22.7 23.3 21.0 90 1.1 SW 19 22 10 12 1008.8 1008.7 2.8
23/11:39pm 22.9 24.1 21.4 91 1.0 SW 17 26 9 14 1008.7 1008.6 2.8
23/11:30pm 23.2 23.9 21.2 88 1.3 WSW 19 28 10 15 1008.4 1008.3 2.8
23/11:00pm 24.2 27.0 20.5 80 2.4 WNW 6 7 3 4 1007.9 1007.8 2.6
23/10:30pm 24.3 26.9 20.0 77 2.8 WNW 6 7 3 4 1007.4 1007.3 2.6
23/10:00pm 24.2 27.5 20.0 77 2.7 NW 2 7 1 4 1007.4 1007.3 2.6
23/09:30pm 24.1 26.7 20.4 80 2.4 SW 7 11 4 6 1007.3 1007.2 2.6
23/09:00pm 23.9 26.7 20.9 83 2.0 NNW 7 11 4 6 1006.8 1006.7 2.6
23/08:30pm 24.5 26.0 20.5 78 2.6 SW 13 22 7 12 1006.7 1006.5 2.6
23/08:00pm 24.4 28.3 22.9 91 1.0 S 7 11 4 6 1005.6 1005.4 2.6
23/07:30pm 24.7 28.9 23.1 91 1.1 NNE 6 7 3 4 1004.9 1004.7 2.6
23/07:00pm 24.6 27.2 22.7 89 1.3 NNE 13 17 7 9 1004.6 1004.4 2.6
23/06:30pm 24.7 28.4 22.5 87 1.5 N 7 11 4 6 1004.4 1004.2 2.6
23/06:00pm 24.8 27.7 21.8 83 2.0 N 9 11 5 6 1004.2 1004.0 2.6
23/05:36pm 24.7 27.3 21.2 81 2.3 NW 9 13 5 7 1004.8 1004.6 2.6
23/05:30pm 24.5 26.9 21.6 84 1.9 WNW 11 20 6 11 1004.9 1004.7 2.6
23/05:17pm 24.4 25.8 21.9 86 1.7 WSW 17 24 9 13 1005.2 1005.0 2.2
23/05:00pm 24.9 26.3 21.8 83 2.1 WSW 17 24 9 13 1005.5 1005.3 1.2
23/04:33pm 24.6 27.7 22.8 90 1.2 SSW 11 15 6 8 1005.2 1005.0 0.8
23/04:30pm 24.5 27.1 22.6 89 1.3 SSW 13 20 7 11 1005.2 1005.0 0.8
23/04:18pm 24.6 25.3 22.2 86 1.6 SSW 22 32 12 17 1005.5 1005.3 0.4
23/04:00pm 26.7 28.6 20.6 69 4.0 S 11 17 6 9 1005.5 1005.3 0.0
23/03:30pm 27.3 28.5 19.8 63 4.9 SSE 13 17 7 9 1004.9 1004.7 0.0
23/03:00pm 27.8 28.8 19.5 60 5.4 SSW 13 19 7 10 1004.7 1004.5 0.0
23/02:30pm 27.1 29.1 19.9 64 4.7 SSW 9 15 5 8 1004.9 1004.7 0.0
23/02:00pm 28.9 26.3 17.8 51 7.1 WSW 28 39 15 21 1005.3 1005.1 0.0
23/01:30pm 30.3 26.8 13.3 35 10.2 W 24 33 13 18 1005.1 1004.9 0.0
23/01:00pm 32.1 27.2 8.6 23 13.1 WNW 24 41 13 22 1004.6 1004.4 0.0
23/12:30pm 33.0 26.7 7.3 20 14.2 WNW 30 41 16 22 1004.8 1004.6 0.0
23/12:00pm 34.6 27.1 4.2 15 16.1 WNW 33 43 18 23 1004.4 1004.2 0.0
23/11:30am 36.8 30.1 5.6 14 17.1 WNW 30 43 16 23 1004.1 1003.9 0.0
23/11:27am 37.3 31.1 6.0 14 17.2 WNW 28 43 15 23 1004.0 1003.8 0.0
23/11:00am 35.1 32.1 9.4 20 14.8 NE 15 20 8 11 1004.3 1004.1 0.0
23/10:30am 32.4 29.7 8.8 23 13.3 NNE 13 19 7 10 1004.4 1004.2 0.0
23/10:00am 30.0 27.6 9.9 28 11.4 N 13 19 7 10 1004.7 1004.5 0.0
23/09:30am 30.3 27.0 9.6 27 11.7 NNE 17 24 9 13 1004.8 1004.6 0.0
23/09:00am 28.4 25.0 9.1 29 10.7 N 17 20 9 11 1005.1 1004.9 0.0
23/08:30am 25.7 23.9 12.2 43 7.8 NNE 13 17 7 9 1005.2 1005.0 0.0
23/08:00am 23.1 22.9 14.7 59 5.0 N 9 11 5 6 1005.4 1005.2 0.0
23/07:30am 21.9 21.8 13.8 60 4.7 NNW 7 11 4 6 1005.4 1005.2 0.0
23/07:00am 20.0 20.5 15.5 75 2.7 NNW 7 7 4 4 1005.3 1005.1 0.0
23/06:30am 19.5 21.2 15.1 76 2.6 CALM 0 0 0 0 1005.3 1005.1 0.0
23/06:00am 19.8 21.5 15.1 74 2.8 CALM 0 0 0 0 1005.3 1005.1 0.0
23/05:30am 20.7 22.4 15.3 71 3.2 CALM 0 4 0 2 1005.1 1004.9 0.0
23/05:00am 22.1 22.1 15.1 64 4.2 WSW 9 11 5 6 1005.0 1004.8 0.0
23/04:30am 22.5 23.0 14.9 62 4.5 WSW 6 9 3 5 1005.2 1005.0 0.0
23/04:00am 22.5 23.8 15.1 63 4.4 SW 2 7 1 4 1005.5 1005.3 0.0
23/03:30am 22.7 22.7 13.6 56 5.3 WSW 6 9 3 5 1005.7 1005.5 0.0
23/03:00am 22.7 22.6 14.0 58 5.1 SW 7 9 4 5 1005.9 1005.7 0.0
23/02:30am 23.2 22.8 14.2 57 5.3 W 9 17 5 9 1006.7 1006.5 0.0
23/02:00am 23.2 22.0 14.0 56 5.4 WSW 13 15 7 8 1007.3 1007.2 0.0
23/01:30am 23.4 21.2 13.4 53 5.8 SW 17 20 9 11 1007.9 1007.8 0.0
23/01:00am 23.9 22.3 11.5 45 7.0 SW 11 17 6 9 1008.3 1008.2 0.0
23/12:30am 24.4 22.3 11.3 43 7.4 WSW 13 15 7 8 1008.5 1008.4 0.0
23/12:00am 24.6 22.3 10.6 41 7.8 WSW 13 17 7 9 1008.5 1008.4 0.0
 
Date/Time
CDT
Temp
°C
App
Temp
°C
Dew
Point
°C
Rel
Hum
%
Delta-T
°C
Wind Press
QNH
hPa
Press
MSL
hPa
Rain since
9am
mm
Dir  Spd
km/h
Gust
km/h
Spd
kts
Gust
kts
22/11:30pm 24.6 22.3 10.4 40 7.9 WSW 13 15 7 8 1008.0 1007.9 0.0
22/11:00pm 24.6 22.6 10.2 40 8.0 SW 11 15 6 8 1008.0 1007.9 0.0
22/10:30pm 25.6 23.9 9.7 36 8.8 SSW 9 15 5 8 1007.9 1007.8 0.0
22/10:00pm 25.6 23.8 9.4 36 8.9 SSW 9 17 5 9 1008.2 1008.1 0.0
22/09:30pm 26.5 23.3 8.5 32 9.8 SSW 15 20 8 11 1008.4 1008.3 0.0
22/09:00pm 26.6 22.6 8.9 32 9.7 SSW 20 26 11 14 1008.5 1008.4 0.0
22/08:30pm 27.3 21.3 5.5 25 11.3 SW 26 33 14 18 1008.4 1008.3 0.0
22/08:00pm 28.1 23.0 7.8 27 11.0 SW 24 33 13 18 1008.3 1008.2 0.0
22/07:30pm 31.3 27.9 6.1 20 13.5 NE 13 15 7 8 1008.0 1007.9 0.0
22/07:00pm 33.6 29.0 3.7 15 15.6 ENE 17 20 9 11 1007.6 1007.5 0.0
22/06:30pm 33.0 29.5 5.3 17 14.8 NE 13 17 7 9 1007.7 1007.6 0.0
22/06:00pm 33.7 29.1 1.6 13 16.2 NE 15 22 8 12 1007.7 1007.6 0.0
22/05:30pm 34.6 29.5 0.9 12 16.9 NE 17 30 9 16 1008.0 1007.9 0.0
22/05:00pm 35.0 30.9 2.4 13 16.8 NNE 13 22 7 12 1008.2 1008.1 0.0
22/04:30pm 34.7 30.0 3.2 14 16.4 NNE 17 24 9 13 1008.4 1008.3 0.0
22/04:00pm 34.6 29.7 2.2 13 16.6 NNE 17 24 9 13 1008.8 1008.7 0.0
22/03:30pm 34.4 29.3 2.9 14 16.3 NNE 19 26 10 14 1009.1 1009.0 0.0
22/03:00pm 33.4 28.9 4.3 16 15.3 NNE 17 24 9 13 1009.2 1009.1 0.0
22/02:30pm 33.4 28.6 2.4 14 15.8 NE 17 24 9 13 1009.6 1009.5 0.0
22/02:00pm 32.9 28.0 3.9 16 15.1 NNE 19 30 10 16 1010.0 1009.9 0.0
22/01:30pm 32.5 27.9 5.5 18 14.4 NNE 19 28 10 15 1010.5 1010.4 0.0
22/01:00pm 31.7 26.6 5.9 20 13.8 N 22 30 12 16 1011.1 1011.0 0.0
22/12:30pm 31.6 26.5 6.0 20 13.7 N 22 32 12 17 1011.8 1011.6 0.0
22/12:00pm 30.0 25.8 8.2 25 12.0 NNE 20 30 11 16 1012.3 1012.1 0.0
22/11:30am 28.2 24.6 10.0 32 10.2 NNE 19 28 10 15 1012.7 1012.5 0.0
22/11:00am 26.6 24.4 10.8 37 8.9 NNE 13 20 7 11 1013.2 1013.0 0.0
22/10:30am 25.3 22.7 10.6 39 8.2 NE 15 20 8 11 1013.3 1013.1 0.0
22/10:00am 24.0 21.5 11.2 44 7.2 NNE 15 20 8 11 1013.7 1013.5 0.0
22/09:30am 22.7 19.9 11.2 48 6.4 NE 17 24 9 13 1013.8 1013.6 0.0
22/09:00am 21.8 19.4 11.4 51 5.8 NNE 15 20 8 11 1013.8 1013.6 0.0
22/08:30am 20.0 19.3 13.1 64 3.9 NNE 9 13 5 7 1013.9 1013.7 0.0
22/08:00am 18.3 18.3 14.1 76 2.4 N 7 9 4 5 1013.8 1013.6 0.0
22/07:30am 16.5 15.9 13.5 82 1.7 WNW 9 13 5 7 1013.7 1013.5 0.0
22/07:00am 13.0 13.6 11.9 93 0.6 CALM 0 0 0 0 1013.4 1013.2 0.0
22/06:30am 11.9 12.1 10.7 92 0.6 CALM 0 0 0 0 1013.2 1013.0 0.0
22/06:00am 11.6 10.4 10.4 92 0.6 WNW 7 11 4 6 1013.2 1013.0 0.0
22/05:30am 12.0 12.3 10.8 92 0.6 CALM 0 0 0 0 1013.2 1013.0 0.0
22/05:00am 12.8 13.3 11.5 92 0.7 CALM 0 0 0 0 1013.1 1012.9 0.0
22/04:30am 14.3 13.2 13.0 92 0.7 W 11 13 6 7 1013.1 1012.9 0.0
22/04:00am 13.8 13.4 12.5 92 0.7 W 6 9 3 5 1013.4 1013.2 0.0
22/03:30am 14.7 13.6 13.1 90 0.9 W 11 13 6 7 1013.4 1013.2 0.0
22/03:00am 15.1 13.3 13.3 89 1.0 W 15 17 8 9 1013.7 1013.5 0.0
22/02:30am 15.3 13.6 13.5 89 1.0 W 15 17 8 9 1014.0 1013.8 0.0
22/02:00am 15.3 13.6 13.5 89 1.0 W 15 19 8 10 1014.3 1014.1 0.0
22/01:30am 14.8 13.8 13.4 91 0.8 WSW 11 15 6 8 1014.4 1014.2 0.0
22/01:00am 15.1 13.8 13.7 91 0.8 WSW 13 17 7 9 1014.7 1014.5 0.0
22/12:30am 15.4 14.1 13.8 90 0.9 WSW 13 17 7 9 1014.8 1014.6 0.0
22/12:00am 15.3 13.6 13.7 90 0.9 WSW 15 17 8 9 1015.1 1014.9 0.0
 
Date/Time
CDT
Temp
°C
App
Temp
°C
Dew
Point
°C
Rel
Hum
%
Delta-T
°C
Wind Press
QNH
hPa
Press
MSL
hPa
Rain since
9am
mm
Dir  Spd
km/h
Gust
km/h
Spd
kts
Gust
kts
21/11:30pm 15.8 14.5 13.7 87 1.2 SW 13 17 7 9 1015.2 1015.0 0.0
21/11:00pm 16.2 14.1 13.7 85 1.4 SW 17 19 9 10 1015.4 1015.2 0.0
21/10:30pm 16.5 14.5 13.9 84 1.5 SW 17 19 9 10 1015.5 1015.3 0.0
21/10:00pm 17.1 15.5 13.9 81 1.8 SW 15 19 8 10 1015.7 1015.5 0.0
21/09:30pm 17.9 16.0 14.1 78 2.2 SSW 17 22 9 12 1015.4 1015.2 0.0
21/09:00pm 18.6 16.6 13.9 74 2.7 SSW 17 26 9 14 1014.9 1014.7 0.0
21/08:30pm 19.4 16.2 13.2 67 3.5 SSW 22 30 12 16 1014.7 1014.5 0.0
21/08:00pm 20.5 17.2 12.7 61 4.4 S 22 32 12 17 1014.3 1014.1 0.0
21/07:30pm 22.0 18.7 12.7 55 5.3 S 22 32 12 17 1013.9 1013.7 0.0
21/07:00pm 23.3 19.0 12.0 49 6.4 S 26 37 14 20 1013.2 1013.0 0.0
21/06:30pm 24.9 20.9 11.7 43 7.5 S 24 37 13 20 1012.9 1012.7 0.0
21/06:00pm 26.3 22.0 10.7 37 8.8 S 24 32 13 17 1012.8 1012.6 0.0
21/05:30pm 28.0 24.7 7.9 28 10.9 SSE 15 22 8 12 1012.7 1012.5 0.0
21/05:00pm 27.7 24.8 6.5 26 11.2 SE 11 19 6 10 1012.8 1012.6 0.0
21/04:30pm 27.6 23.5 6.0 25 11.3 E 17 24 9 13 1013.1 1012.9 0.0
21/04:00pm 27.6 24.2 5.7 24 11.4 SE 13 20 7 11 1013.4 1013.2 0.0
21/03:30pm 27.6 24.0 5.0 23 11.6 ESE 13 24 7 13 1013.6 1013.4 0.0
21/03:00pm 26.4 23.2 5.0 25 10.9 ESE 11 22 6 12 1014.1 1013.9 0.0
21/02:30pm 25.3 22.7 6.1 29 9.9 E 9 19 5 10 1014.3 1014.1 0.0
21/02:00pm 25.2 22.4 7.1 31 9.5 SE 11 20 6 11 1014.5 1014.3 0.0
21/01:30pm 25.0 21.6 7.6 33 9.2 ESE 15 20 8 11 1014.7 1014.5 0.0
21/01:00pm 23.3 20.4 8.2 38 8.0 NNE 13 22 7 12 1015.1 1014.9 0.0
21/12:30pm 22.7 20.4 7.3 37 8.0 E 9 17 5 9 1015.2 1015.0 0.0
21/12:00pm 22.5 19.5 7.8 38 7.7 NE 13 20 7 11 1015.4 1015.2 0.0
21/11:30am 20.6 17.6 7.6 43 6.7 NE 13 20 7 11 1015.8 1015.6 0.0
21/11:00am 19.4 17.7 8.4 49 5.7 SE 7 13 4 7 1016.1 1015.9 0.0
21/10:30am 19.0 16.5 8.4 50 5.5 NNE 11 19 6 10 1016.4 1016.2 0.0
21/10:00am 18.2 16.2 8.8 54 4.9 NE 9 19 5 10 1016.7 1016.5 0.0
21/09:30am 17.1 15.0 9.9 62 3.8 NE 11 17 6 9 1016.8 1016.6 0.0

Other Formats:

Comma delimited format used in spreadsheet applications
http://www.bom.gov.au/fwo/IDS60801/IDS60801.95818.axf

JavaScript Object Notation format (JSON) in row-major order
http://www.bom.gov.au/fwo/IDS60801/IDS60801.95818.json